Time;durP1;ratioP1;P1;durP2;ratioP2;P2;SDS_P1;SDS_P2;PMS_P1;PMS_P2;Temp;Humidity;BMP_temperature;BMP_pressure;BME280_temperature;BME280_humidity;BME280_pressure;Samples;Min_cycle;Max_cycle;Signal;HPM_P1;HPM_P2
2023/09/06 01:46:25;;;;;;;14.18;8.40;;;;;;;;;;5001477;28;20435;-63
2023/09/06 01:48:52;;;;;;;14.82;7.88;;;;;;;;;;4979138;28;20105;-65
2023/09/06 01:51:19;;;;;;;14.05;7.82;;;;;;;;;;4977748;28;20750;-64
2023/09/06 01:53:45;;;;;;;13.88;8.18;;;;;;;;;;4977383;28;20506;-65
2023/09/06 01:56:12;;;;;;;16.88;7.70;;;;;;;;;;4979021;28;20053;-62
2023/09/06 01:58:39;;;;;;;15.68;7.82;;;;;;;;;;4976236;28;20541;-62
2023/09/06 02:01:05;;;;;;;14.65;8.68;;;;;;;;;;4976777;28;21426;-63
2023/09/06 02:03:35;;;;;;;14.98;8.27;;;;;;;;;;4976851;28;20034;-65
2023/09/06 02:06:03;;;;;;;13.45;7.22;;;;;;;;;;4975217;28;20523;-64
2023/09/06 02:08:29;;;;;;;12.50;6.95;;;;;;;;;;4978092;28;20042;-63
2023/09/06 02:10:56;;;;;;;13.98;7.60;;;;;;;;;;4979023;28;20213;-63
2023/09/06 02:13:23;;;;;;;13.07;7.45;;;;;;;;;;4976133;28;20035;-62
2023/09/06 02:15:49;;;;;;;12.55;7.20;;;;;;;;;;4979321;28;20026;-63
2023/09/06 02:18:17;;;;;;;13.85;7.07;;;;;;;;;;4977428;28;20093;-62
2023/09/06 02:20:44;;;;;;;15.40;6.80;;;;;;;;;;4976710;28;20144;-63
2023/09/06 02:23:11;;;;;;;10.98;6.53;;;;;;;;;;4976875;28;20541;-62
2023/09/06 02:25:38;;;;;;;11.77;6.80;;;;;;;;;;4977291;28;20053;-64
2023/09/06 02:28:05;;;;;;;10.18;6.07;;;;;;;;;;4975346;28;20869;-63
2023/09/06 02:30:38;;;;;;;10.02;4.85;;;;;;;;;;4976449;28;20086;-64
2023/09/06 02:33:07;;;;;;;10.30;5.80;;;;;;;;;;4979309;28;20104;-63
2023/09/06 02:35:40;;;;;;;11.38;5.50;;;;;;;;;;4974793;28;20505;-63
2023/09/06 02:38:07;;;;;;;9.63;5.35;;;;;;;;;;4976680;28;20053;-64
2023/09/06 02:40:34;;;;;;;9.80;5.03;;;;;;;;;;4973635;28;20523;-62
2023/09/06 02:43:02;;;;;;;9.85;5.07;;;;;;;;;;4980411;28;20049;-63
2023/09/06 02:45:37;;;;;;;12.30;5.55;;;;;;;;;;4978471;28;20136;-64
2023/09/06 02:48:12;;;;;;;11.38;5.70;;;;;;;;;;4983796;28;20229;-64
2023/09/06 02:50:40;;;;;;;9.65;5.00;;;;;;;;;;4987955;28;20604;-64
2023/09/06 02:53:19;;;;;;;12.75;6.20;;;;;;;;;;4980046;28;20085;-63
2023/09/06 02:55:48;;;;;;;20.98;11.73;;;;;;;;;;4978759;28;20057;-62
2023/09/06 02:58:24;;;;;;;30.23;17.70;;;;;;;;;;4967909;28;20046;-63
2023/09/06 03:00:55;;;;;;;49.20;27.42;;;;;;;;;;4965632;28;20051;-63
2023/09/06 03:03:22;;;;;;;59.63;35.15;;;;;;;;;;4965036;28;20081;-62
2023/09/06 03:05:49;;;;;;;64.15;36.80;;;;;;;;;;4957517;28;20051;-62
2023/09/06 03:08:16;;;;;;;71.20;38.58;;;;;;;;;;4966218;28;20047;-63
2023/09/06 03:10:46;;;;;;;67.10;37.00;;;;;;;;;;4964791;28;20073;-63
2023/09/06 03:13:15;;;;;;;66.53;41.05;;;;;;;;;;4963776;28;20109;-63
2023/09/06 03:15:43;;;;;;;52.20;29.15;;;;;;;;;;4965753;28;20135;-62
2023/09/06 03:18:10;;;;;;;63.22;35.28;;;;;;;;;;4964290;28;20141;-62
2023/09/06 03:20:43;;;;;;;71.07;40.58;;;;;;;;;;4964572;28;20031;-63
2023/09/06 03:23:20;;;;;;;64.22;37.58;;;;;;;;;;4966182;28;20077;-62
2023/09/06 03:25:54;;;;;;;70.68;40.20;;;;;;;;;;4964097;28;20669;-62
2023/09/06 03:28:21;;;;;;;59.30;34.63;;;;;;;;;;4965876;28;20093;-61
2023/09/06 03:30:49;;;;;;;67.15;36.67;;;;;;;;;;4962482;28;20038;-62
2023/09/06 03:33:15;;;;;;;69.43;37.33;;;;;;;;;;4965671;28;20049;-62
2023/09/06 03:35:45;;;;;;;64.40;35.15;;;;;;;;;;4965240;28;20050;-63
2023/09/06 03:38:15;;;;;;;61.65;36.15;;;;;;;;;;4965156;28;20391;-63
2023/09/06 03:40:42;;;;;;;62.60;34.92;;;;;;;;;;4963849;28;20054;-62
2023/09/06 03:43:30;;;;;;;56.28;33.47;;;;;;;;;;4964790;28;20117;-63
2023/09/06 03:45:58;;;;;;;46.22;27.67;;;;;;;;;;4969515;28;20050;-64
2023/09/06 03:48:27;;;;;;;61.13;33.90;;;;;;;;;;4962114;28;20372;-64
2023/09/06 03:51:00;;;;;;;53.88;30.88;;;;;;;;;;4971128;28;20047;-64
2023/09/06 03:53:26;;;;;;;;;;;;;;;;;;4964489;28;21769;-64
2023/09/06 03:55:56;;;;;;;49.83;27.42;;;;;;;;;;4962307;28;19995;-63
2023/09/06 03:58:23;;;;;;;53.38;30.48;;;;;;;;;;4964903;28;20041;-64
2023/09/06 04:00:51;;;;;;;38.13;18.52;;;;;;;;;;4963210;28;20100;-63
2023/09/06 04:03:18;;;;;;;50.67;29.20;;;;;;;;;;4964601;28;20136;-61
2023/09/06 04:05:48;;;;;;;48.58;30.33;;;;;;;;;;4963901;28;20427;-62
2023/09/06 04:08:17;;;;;;;50.83;28.75;;;;;;;;;;4963276;28;20038;-61
2023/09/06 04:10:44;;;;;;;46.60;26.20;;;;;;;;;;4964989;28;20078;-62
2023/09/06 04:13:14;;;;;;;41.08;25.75;;;;;;;;;;4966451;28;20153;-64
2023/09/06 04:15:44;;;;;;;46.10;23.85;;;;;;;;;;4966980;28;20034;-63
2023/09/06 04:18:12;;;;;;;36.38;21.35;;;;;;;;;;4961170;28;20073;-63
2023/09/06 04:20:44;;;;;;;43.97;23.23;;;;;;;;;;4963400;28;20044;-64
2023/09/06 04:23:13;;;;;;;38.83;22.70;;;;;;;;;;4965402;28;20125;-63
2023/09/06 04:25:44;;;;;;;37.13;22.25;;;;;;;;;;4963163;28;20149;-63
2023/09/06 04:28:15;;;;;;;35.15;20.50;;;;;;;;;;4963860;28;20459;-63
2023/09/06 04:30:42;;;;;;;38.72;21.85;;;;;;;;;;4963534;28;20049;-62
2023/09/06 04:33:15;;;;;;;30.95;17.52;;;;;;;;;;4961275;28;20085;-62
2023/09/06 04:35:43;;;;;;;37.65;21.60;;;;;;;;;;4973097;28;20035;-63
2023/09/06 04:38:14;;;;;;;35.90;20.63;;;;;;;;;;4959963;28;20185;-62
2023/09/06 04:40:44;;;;;;;31.85;18.83;;;;;;;;;;4963165;28;20043;-65
2023/09/06 04:43:11;;;;;;;30.00;17.52;;;;;;;;;;4964473;28;20221;-61
2023/09/06 04:45:38;;;;;;;29.55;16.73;;;;;;;;;;4973782;28;20336;-63
2023/09/06 04:48:11;;;;;;;28.52;16.88;;;;;;;;;;4962812;28;20044;-62
2023/09/06 04:50:38;;;;;;;28.77;15.60;;;;;;;;;;4962199;28;20046;-63
2023/09/06 04:53:05;;;;;;;25.55;14.43;;;;;;;;;;4963375;28;20337;-61
2023/09/06 04:55:35;;;;;;;27.20;14.85;;;;;;;;;;4963745;28;20034;-62
2023/09/06 04:58:11;;;;;;;25.67;13.50;;;;;;;;;;4964091;28;20061;-62
2023/09/06 05:00:39;;;;;;;22.75;13.25;;;;;;;;;;4973788;28;20077;-63
2023/09/06 05:03:11;;;;;;;24.83;13.98;;;;;;;;;;4962866;28;20046;-65
2023/09/06 05:05:38;;;;;;;21.40;11.93;;;;;;;;;;4961377;28;20536;-63
2023/09/06 05:08:05;;;;;;;21.83;12.40;;;;;;;;;;4963002;28;20625;-63
2023/09/06 05:10:32;;;;;;;22.50;12.02;;;;;;;;;;4962867;28;20210;-63
2023/09/06 05:12:59;;;;;;;20.90;11.95;;;;;;;;;;4962657;28;21204;-63
2023/09/06 05:15:25;;;;;;;19.73;11.13;;;;;;;;;;4962656;28;21369;-65
2023/09/06 05:17:53;;;;;;;20.00;11.35;;;;;;;;;;4960153;28;20050;-62
2023/09/06 05:20:30;;;;;;;20.98;12.05;;;;;;;;;;4961310;28;20042;-65
2023/09/06 05:22:57;;;;;;;23.05;12.45;;;;;;;;;;4968787;28;20050;-63
2023/09/06 05:25:24;;;;;;;22.60;12.20;;;;;;;;;;4960496;28;20180;-63
2023/09/06 05:27:52;;;;;;;23.95;11.73;;;;;;;;;;4961467;28;20050;-63
2023/09/06 05:30:19;;;;;;;23.52;12.20;;;;;;;;;;4961952;28;20038;-63
2023/09/06 05:32:45;;;;;;;20.13;11.40;;;;;;;;;;4961396;28;20042;-64
2023/09/06 05:35:12;;;;;;;21.13;12.35;;;;;;;;;;4961326;28;20626;-64
2023/09/06 05:37:39;;;;;;;18.50;11.20;;;;;;;;;;4961636;28;20045;-64
2023/09/06 05:40:06;;;;;;;22.75;12.30;;;;;;;;;;4961713;28;20181;-63
2023/09/06 05:42:32;;;;;;;21.23;11.80;;;;;;;;;;4975087;28;20879;-64
2023/09/06 05:44:59;;;;;;;21.67;12.52;;;;;;;;;;4960605;28;20294;-64
2023/09/06 05:47:26;;;;;;;19.58;11.25;;;;;;;;;;4960863;28;20047;-64
2023/09/06 05:49:55;;;;;;;19.48;11.50;;;;;;;;;;4961956;28;20380;-64
2023/09/06 05:52:23;;;;;;;21.80;11.60;;;;;;;;;;4961115;28;20077;-64
2023/09/06 05:54:49;;;;;;;20.90;12.10;;;;;;;;;;4961414;28;20399;-64
2023/09/06 05:57:16;;;;;;;30.17;13.27;;;;;;;;;;4968841;28;20519;-64
2023/09/06 05:59:43;;;;;;;22.50;12.55;;;;;;;;;;4961148;28;20082;-64
2023/09/06 06:02:09;;;;;;;25.88;13.90;;;;;;;;;;4962161;28;20410;-62
2023/09/06 06:04:36;;;;;;;27.63;13.32;;;;;;;;;;4961677;28;20057;-63
2023/09/06 06:07:02;;;;;;;28.92;13.18;;;;;;;;;;4962742;28;20047;-65
2023/09/06 06:09:29;;;;;;;24.20;13.40;;;;;;;;;;4961816;28;20038;-65
2023/09/06 06:11:56;;;;;;;21.08;12.35;;;;;;;;;;4955370;28;20539;-64
2023/09/06 06:14:25;;;;;;;21.88;13.07;;;;;;;;;;4969544;28;20675;-63
2023/09/06 06:16:52;;;;;;;24.70;12.95;;;;;;;;;;4962479;28;20045;-63
2023/09/06 06:19:19;;;;;;;24.92;13.23;;;;;;;;;;4964773;28;20117;-63
2023/09/06 06:21:46;;;;;;;24.30;13.00;;;;;;;;;;4964114;28;20027;-65
2023/09/06 06:24:13;;;;;;;23.58;12.27;;;;;;;;;;4965661;28;20145;-64
2023/09/06 06:26:40;;;;;;;22.35;12.35;;;;;;;;;;4962751;28;20538;-63
2023/09/06 06:29:06;;;;;;;21.48;12.38;;;;;;;;;;4961398;28;20048;-64
2023/09/06 06:31:33;;;;;;;22.92;12.40;;;;;;;;;;4964919;28;20535;-64
2023/09/06 06:34:00;;;;;;;21.63;12.07;;;;;;;;;;4968532;28;20581;-64
2023/09/06 06:36:27;;;;;;;21.00;12.05;;;;;;;;;;4967025;28;20459;-64
2023/09/06 06:38:54;;;;;;;22.88;13.25;;;;;;;;;;4967945;28;20285;-64
2023/09/06 06:41:22;;;;;;;21.73;12.98;;;;;;;;;;4968112;28;20050;-64
2023/09/06 06:43:52;;;;;;;23.55;12.35;;;;;;;;;;4965814;28;20085;-63
2023/09/06 06:46:29;;;;;;;23.83;12.98;;;;;;;;;;4967922;28;20069;-64
2023/09/06 06:48:57;;;;;;;22.80;13.00;;;;;;;;;;4964823;28;20047;-63
2023/09/06 06:51:27;;;;;;;22.30;12.15;;;;;;;;;;4970729;28;20042;-64
2023/09/06 06:53:54;;;;;;;24.60;13.75;;;;;;;;;;4977654;28;20035;-63
2023/09/06 06:56:21;;;;;;;25.58;13.68;;;;;;;;;;4979533;28;20046;-64
2023/09/06 06:58:48;;;;;;;29.02;14.00;;;;;;;;;;4971392;28;20933;-64
2023/09/06 07:01:15;;;;;;;25.92;13.75;;;;;;;;;;4970634;28;20507;-63
2023/09/06 07:03:42;;;;;;;24.38;14.25;;;;;;;;;;4969316;28;20069;-64
2023/09/06 07:06:09;;;;;;;26.05;14.20;;;;;;;;;;4970307;28;20046;-62
2023/09/06 07:08:38;;;;;;;25.95;14.05;;;;;;;;;;4969504;28;20109;-63
2023/09/06 07:11:06;;;;;;;26.63;14.02;;;;;;;;;;4975121;28;20066;-63
2023/09/06 07:13:34;;;;;;;25.50;13.93;;;;;;;;;;4971518;28;20043;-63
2023/09/06 07:16:02;;;;;;;25.20;14.40;;;;;;;;;;4966320;28;20038;-63
2023/09/06 07:18:28;;;;;;;23.92;13.95;;;;;;;;;;4965869;28;20104;-64
2023/09/06 07:20:56;;;;;;;24.08;13.68;;;;;;;;;;4966347;28;20078;-63
2023/09/06 07:23:23;;;;;;;25.50;14.18;;;;;;;;;;4965413;28;20387;-65
2023/09/06 07:25:49;;;;;;;25.25;14.68;;;;;;;;;;4966930;28;20097;-64
2023/09/06 07:28:16;;;;;;;24.70;14.25;;;;;;;;;;4966881;28;20050;-63
2023/09/06 07:30:43;;;;;;;28.50;15.00;;;;;;;;;;4966796;28;20034;-62
2023/09/06 07:33:10;;;;;;;26.10;15.10;;;;;;;;;;4966952;28;20038;-64
2023/09/06 07:35:36;;;;;;;24.90;14.48;;;;;;;;;;4966056;28;20042;-67
2023/09/06 07:38:03;;;;;;;28.83;15.45;;;;;;;;;;4965849;28;20049;-65
2023/09/06 07:40:29;;;;;;;29.35;15.75;;;;;;;;;;4964141;28;20042;-65
2023/09/06 07:42:56;;;;;;;28.92;14.70;;;;;;;;;;4972720;28;20038;-64
2023/09/06 07:45:22;;;;;;;24.98;14.75;;;;;;;;;;4965880;28;20038;-64
2023/09/06 07:47:49;;;;;;;29.27;16.08;;;;;;;;;;4964483;28;20098;-64
2023/09/06 07:50:16;;;;;;;29.73;16.17;;;;;;;;;;4965242;28;20818;-63
2023/09/06 07:52:42;;;;;;;27.90;15.98;;;;;;;;;;4965853;28;20054;-64
2023/09/06 07:55:09;;;;;;;26.83;15.93;;;;;;;;;;4965957;28;20050;-65
2023/09/06 07:57:36;;;;;;;31.85;16.13;;;;;;;;;;4964926;28;20049;-64
2023/09/06 08:00:04;;;;;;;29.70;15.63;;;;;;;;;;4976459;28;20049;-64
2023/09/06 08:02:30;;;;;;;29.50;15.60;;;;;;;;;;4962829;28;20065;-63
2023/09/06 08:04:57;;;;;;;28.05;16.33;;;;;;;;;;4964185;28;20085;-64
2023/09/06 08:07:24;;;;;;;25.10;15.45;;;;;;;;;;4964062;28;20089;-64
2023/09/06 08:09:51;;;;;;;27.10;15.63;;;;;;;;;;4974391;28;20053;-64
2023/09/06 08:12:17;;;;;;;31.58;17.08;;;;;;;;;;4973255;28;20049;-63
2023/09/06 08:14:44;;;;;;;30.27;16.42;;;;;;;;;;4981244;28;20081;-64
2023/09/06 08:17:11;;;;;;;26.40;16.10;;;;;;;;;;4963638;28;20034;-63
2023/09/06 08:19:37;;;;;;;29.77;16.63;;;;;;;;;;4962680;28;20038;-63
2023/09/06 08:22:04;;;;;;;32.55;17.75;;;;;;;;;;4970513;28;20149;-63
2023/09/06 08:24:31;;;;;;;30.30;16.00;;;;;;;;;;4973120;28;20104;-64
2023/09/06 08:26:58;;;;;;;29.70;17.02;;;;;;;;;;4971102;28;20597;-64
2023/09/06 08:29:24;;;;;;;31.33;17.55;;;;;;;;;;4962934;28;20121;-63
2023/09/06 08:31:51;;;;;;;29.35;17.45;;;;;;;;;;4963847;28;20134;-64
2023/09/06 08:34:18;;;;;;;31.73;16.08;;;;;;;;;;4964146;28;20105;-64
2023/09/06 08:36:44;;;;;;;26.45;15.82;;;;;;;;;;4962507;28;20578;-65
2023/09/06 08:39:11;;;;;;;28.85;16.95;;;;;;;;;;4964370;28;20039;-63
2023/09/06 08:41:38;;;;;;;28.10;15.73;;;;;;;;;;4960731;28;20103;-64
2023/09/06 08:44:06;;;;;;;25.83;16.27;;;;;;;;;;4967964;28;20450;-64
2023/09/06 08:46:34;;;;;;;30.80;17.25;;;;;;;;;;4963154;28;20507;-64
2023/09/06 08:49:03;;;;;;;30.90;16.80;;;;;;;;;;4962917;28;20046;-65
2023/09/06 08:51:35;;;;;;;31.92;17.50;;;;;;;;;;4961917;28;20471;-65
2023/09/06 08:54:02;;;;;;;29.27;16.65;;;;;;;;;;4962265;28;21473;-65
2023/09/06 08:56:29;;;;;;;28.55;17.40;;;;;;;;;;4961408;28;21380;-65
2023/09/06 08:58:55;;;;;;;28.90;16.27;;;;;;;;;;4962587;28;20050;-64
2023/09/06 09:01:22;;;;;;;27.85;16.60;;;;;;;;;;4961470;28;20113;-65
2023/09/06 09:03:48;;;;;;;30.92;17.40;;;;;;;;;;4962306;28;20069;-63
2023/09/06 09:06:15;;;;;;;26.52;15.93;;;;;;;;;;4962422;28;20054;-64
2023/09/06 09:08:41;;;;;;;26.55;16.30;;;;;;;;;;4959855;28;20073;-63
2023/09/06 09:11:11;;;;;;;28.65;15.43;;;;;;;;;;4961662;28;21128;-65
2023/09/06 09:13:38;;;;;;;27.08;16.27;;;;;;;;;;4961768;28;20396;-64
2023/09/06 09:16:08;;;;;;;27.90;14.98;;;;;;;;;;4962633;28;20037;-64
2023/09/06 09:18:36;;;;;;;27.40;15.35;;;;;;;;;;4960451;28;20038;-63
2023/09/06 09:21:03;;;;;;;26.10;15.40;;;;;;;;;;4961909;28;20173;-64
2023/09/06 09:23:31;;;;;;;26.75;15.70;;;;;;;;;;4961716;28;20038;-64
2023/09/06 09:25:57;;;;;;;24.63;14.48;;;;;;;;;;4962264;28;20050;-65
2023/09/06 09:28:24;;;;;;;24.02;13.77;;;;;;;;;;4960514;28;20043;-63
2023/09/06 09:30:52;;;;;;;25.65;13.32;;;;;;;;;;4962239;28;20199;-63
2023/09/06 09:33:19;;;;;;;26.13;13.60;;;;;;;;;;4963652;28;20125;-63
2023/09/06 09:35:47;;;;;;;24.95;14.05;;;;;;;;;;4962305;28;20172;-63
2023/09/06 09:38:13;;;;;;;24.90;13.82;;;;;;;;;;4960938;28;20597;-63
2023/09/06 09:40:40;;;;;;;23.60;12.90;;;;;;;;;;4972307;28;20042;-63
2023/09/06 09:43:07;;;;;;;22.50;13.05;;;;;;;;;;4962176;28;20069;-64
2023/09/06 09:45:46;;;;;;;20.85;11.73;;;;;;;;;;4961460;28;20129;-63
2023/09/06 09:48:12;;;;;;;23.23;12.80;;;;;;;;;;4968494;28;20047;-63
2023/09/06 09:50:41;;;;;;;22.63;11.93;;;;;;;;;;4961063;28;20492;-68
2023/09/06 09:53:11;;;;;;;20.55;11.65;;;;;;;;;;4966834;28;20675;-63
2023/09/06 09:55:41;;;;;;;22.30;12.55;;;;;;;;;;4961164;28;20486;-63
2023/09/06 09:58:11;;;;;;;22.40;12.18;;;;;;;;;;4960569;28;20047;-63
2023/09/06 10:00:39;;;;;;;20.55;11.32;;;;;;;;;;4962647;28;20053;-63
2023/09/06 10:03:08;;;;;;;21.70;11.80;;;;;;;;;;4964877;28;20054;-64
2023/09/06 10:05:36;;;;;;;21.70;11.75;;;;;;;;;;4967873;28;20066;-64
2023/09/06 10:08:06;;;;;;;20.80;11.63;;;;;;;;;;4985706;28;20067;-63
2023/09/06 10:10:33;;;;;;;20.75;12.27;;;;;;;;;;4964370;28;20057;-64
2023/09/06 10:13:06;;;;;;;23.05;12.38;;;;;;;;;;4966867;28;20039;-65
2023/09/06 10:15:33;;;;;;;22.15;12.43;;;;;;;;;;4966758;28;20067;-65
2023/09/06 10:18:00;;;;;;;21.92;13.40;;;;;;;;;;4965769;28;20121;-63
2023/09/06 10:20:27;;;;;;;21.48;12.27;;;;;;;;;;4967670;28;20549;-64
2023/09/06 10:22:56;;;;;;;20.25;12.35;;;;;;;;;;4983445;28;20047;-63
2023/09/06 10:25:25;;;;;;;20.85;11.88;;;;;;;;;;4966745;28;20415;-63
2023/09/06 10:27:59;;;;;;;21.80;12.57;;;;;;;;;;4961634;28;20107;-62
2023/09/06 10:30:40;;;;;;;22.25;12.63;;;;;;;;;;4966743;28;20043;-62
2023/09/06 10:33:08;;;;;;;22.45;12.25;;;;;;;;;;4980316;28;20161;-62
2023/09/06 10:35:41;;;;;;;24.95;13.18;;;;;;;;;;4967807;28;20039;-62
2023/09/06 10:38:07;;;;;;;;;;;;;;;;;;4969978;28;20133;-62
2023/09/06 10:40:49;;;;;;;26.70;13.32;;;;;;;;;;4969223;28;19953;-64
2023/09/06 10:43:16;;;;;;;25.05;13.10;;;;;;;;;;4970191;28;20597;-63
2023/09/06 10:46:18;;;;;;;23.80;12.45;;;;;;;;;;4967766;28;20510;-64
2023/09/06 10:49:03;;;;;;;20.70;12.07;;;;;;;;;;4967128;28;20034;-64
2023/09/06 10:51:29;;;;;;;22.42;12.68;;;;;;;;;;4968121;28;20049;-64
2023/09/06 10:53:56;;;;;;;22.98;12.32;;;;;;;;;;4969111;28;20043;-62
2023/09/06 10:56:29;;;;;;;23.50;12.85;;;;;;;;;;4968053;28;20089;-63
2023/09/06 10:58:57;;;;;;;24.13;13.57;;;;;;;;;;4969976;28;20483;-63
2023/09/06 11:01:24;;;;;;;23.45;12.98;;;;;;;;;;4969666;28;20658;-63
2023/09/06 11:03:54;;;;;;;23.35;13.05;;;;;;;;;;4975124;28;20989;-63
2023/09/06 11:06:24;;;;;;;24.73;13.38;;;;;;;;;;4964608;28;20531;-63
2023/09/06 11:08:51;;;;;;;24.25;13.25;;;;;;;;;;4973768;28;20453;-62
2023/09/06 11:11:17;;;;;;;21.60;12.45;;;;;;;;;;4966253;28;20379;-61
2023/09/06 11:13:44;;;;;;;22.92;12.43;;;;;;;;;;4964287;28;20049;-62
2023/09/06 11:16:15;;;;;;;21.65;11.82;;;;;;;;;;4963963;28;20463;-62
2023/09/06 11:18:49;;;;;;;23.88;12.15;;;;;;;;;;4961515;28;20224;-63
2023/09/06 11:21:17;;;;;;;21.83;12.65;;;;;;;;;;4965548;28;21445;-62
2023/09/06 11:23:45;;;;;;;22.17;12.55;;;;;;;;;;4964957;28;20054;-63
2023/09/06 11:26:12;;;;;;;20.08;11.95;;;;;;;;;;4962995;28;20120;-63
2023/09/06 11:28:40;;;;;;;20.75;11.82;;;;;;;;;;4962657;28;21016;-63
2023/09/06 11:31:19;;;;;;;22.95;12.32;;;;;;;;;;4963659;28;20038;-63
2023/09/06 11:33:46;;;;;;;23.38;12.68;;;;;;;;;;4964194;28;20495;-64
2023/09/06 11:36:13;;;;;;;24.20;12.68;;;;;;;;;;4969815;28;20053;-64
2023/09/06 11:38:42;;;;;;;22.98;12.35;;;;;;;;;;4963056;28;20046;-64
2023/09/06 11:41:11;;;;;;;22.27;12.18;;;;;;;;;;4963861;28;20495;-64
2023/09/06 11:43:42;;;;;;;24.80;13.07;;;;;;;;;;4963855;28;21729;-63
2023/09/06 11:46:12;;;;;;;22.80;13.05;;;;;;;;;;4964093;28;20116;-64
2023/09/06 11:48:39;;;;;;;25.33;13.05;;;;;;;;;;4962928;28;20043;-63
2023/09/06 11:51:11;;;;;;;23.65;13.27;;;;;;;;;;4963330;28;20046;-63
2023/09/06 11:53:43;;;;;;;19.98;12.70;;;;;;;;;;4960533;28;20439;-65
2023/09/06 11:56:11;;;;;;;24.50;13.32;;;;;;;;;;4963918;28;20523;-65
2023/09/06 11:58:43;;;;;;;23.33;12.73;;;;;;;;;;4962902;28;20035;-64
2023/09/06 12:01:11;;;;;;;21.95;12.93;;;;;;;;;;4962883;28;20574;-65
2023/09/06 12:03:44;;;;;;;23.40;13.55;;;;;;;;;;4976288;28;20047;-64
2023/09/06 12:06:12;;;;;;;23.83;12.57;;;;;;;;;;4963454;28;20046;-64
2023/09/06 12:08:40;;;;;;;26.67;13.30;;;;;;;;;;4963096;28;20213;-63
2023/09/06 12:11:10;;;;;;;23.25;12.82;;;;;;;;;;4964411;28;20047;-63
2023/09/06 12:13:38;;;;;;;23.42;12.75;;;;;;;;;;4965007;28;20089;-63
2023/09/06 12:16:06;;;;;;;23.67;13.27;;;;;;;;;;4963166;28;20046;-64
2023/09/06 12:18:34;;;;;;;24.35;13.07;;;;;;;;;;4959711;28;20443;-62
2023/09/06 12:21:02;;;;;;;28.10;14.43;;;;;;;;;;4963568;28;20714;-63
2023/09/06 12:23:29;;;;;;;27.50;13.32;;;;;;;;;;4960686;28;20078;-63
2023/09/06 12:25:56;;;;;;;25.27;13.50;;;;;;;;;;4962182;28;20059;-63
2023/09/06 12:28:24;;;;;;;26.92;14.20;;;;;;;;;;4959928;28;20110;-64
2023/09/06 12:31:00;;;;;;;25.33;14.02;;;;;;;;;;4960789;28;20042;-65
2023/09/06 12:33:30;;;;;;;25.33;14.07;;;;;;;;;;4962448;28;20043;-63
2023/09/06 12:36:00;;;;;;;27.83;14.32;;;;;;;;;;4962709;28;20133;-63
2023/09/06 12:38:31;;;;;;;27.50;14.10;;;;;;;;;;4971227;28;20069;-66
2023/09/06 12:40:58;;;;;;;27.40;14.00;;;;;;;;;;4959669;28;20402;-64
2023/09/06 12:43:26;;;;;;;27.95;14.73;;;;;;;;;;4968492;28;20450;-65
2023/09/06 12:45:57;;;;;;;26.38;14.32;;;;;;;;;;4962638;28;20046;-64
2023/09/06 12:48:26;;;;;;;26.75;14.27;;;;;;;;;;4961015;28;20778;-65
2023/09/06 12:50:53;;;;;;;25.58;13.85;;;;;;;;;;4960117;28;20104;-63
2023/09/06 12:53:20;;;;;;;26.48;14.70;;;;;;;;;;4962560;28;20105;-63
2023/09/06 12:55:46;;;;;;;28.83;13.43;;;;;;;;;;4958560;28;20058;-64
2023/09/06 12:58:14;;;;;;;26.77;13.73;;;;;;;;;;4962709;28;20062;-62
2023/09/06 13:00:43;;;;;;;27.05;13.55;;;;;;;;;;4958507;28;20050;-63
2023/09/06 13:03:11;;;;;;;28.80;14.70;;;;;;;;;;4962118;28;20117;-68
2023/09/06 13:05:40;;;;;;;30.83;15.02;;;;;;;;;;4961793;28;20129;-63
2023/09/06 13:08:07;;;;;;;27.35;14.38;;;;;;;;;;4970082;28;20047;-64
2023/09/06 13:10:33;;;;;;;26.63;13.60;;;;;;;;;;4960781;28;20038;-64
2023/09/06 13:13:00;;;;;;;23.88;13.85;;;;;;;;;;4956730;28;20031;-64
2023/09/06 13:15:26;;;;;;;26.13;14.27;;;;;;;;;;4970233;28;20034;-63
2023/09/06 13:17:53;;;;;;;25.90;14.75;;;;;;;;;;4960046;28;20042;-64
2023/09/06 13:20:20;;;;;;;25.80;13.75;;;;;;;;;;4961971;28;20157;-66
2023/09/06 13:22:46;;;;;;;25.48;13.80;;;;;;;;;;4961807;28;20047;-64
2023/09/06 13:25:13;;;;;;;29.27;14.88;;;;;;;;;;4961895;28;20342;-64
2023/09/06 13:27:41;;;;;;;28.60;14.32;;;;;;;;;;4959975;28;20057;-64
2023/09/06 13:30:08;;;;;;;25.17;13.48;;;;;;;;;;4972142;28;20085;-64
2023/09/06 13:32:37;;;;;;;26.27;14.40;;;;;;;;;;4961485;28;20518;-64
2023/09/06 13:35:04;;;;;;;28.42;14.38;;;;;;;;;;4961337;28;20038;-65
2023/09/06 13:37:32;;;;;;;29.88;14.48;;;;;;;;;;4960839;28;20039;-65
2023/09/06 13:40:00;;;;;;;27.65;15.18;;;;;;;;;;4959607;28;20469;-66
2023/09/06 13:42:28;;;;;;;27.83;14.65;;;;;;;;;;4964208;28;20046;-63
2023/09/06 13:44:55;;;;;;;26.85;14.75;;;;;;;;;;4961243;28;20534;-66
2023/09/06 13:47:22;;;;;;;33.65;15.13;;;;;;;;;;4960141;28;20031;-66
2023/09/06 13:49:50;;;;;;;27.50;15.25;;;;;;;;;;4970404;28;20055;-64
2023/09/06 13:52:17;;;;;;;30.48;16.75;;;;;;;;;;4962790;28;20035;-65
2023/09/06 13:54:44;;;;;;;32.13;16.05;;;;;;;;;;4962146;28;20042;-65
2023/09/06 13:57:10;;;;;;;26.58;15.55;;;;;;;;;;4963686;28;20525;-65
2023/09/06 13:59:37;;;;;;;27.30;14.93;;;;;;;;;;4960629;28;20042;-65
2023/09/06 14:02:04;;;;;;;31.42;15.10;;;;;;;;;;4964107;28;20035;-66
2023/09/06 14:04:31;;;;;;;28.58;16.15;;;;;;;;;;4963119;28;20050;-64
2023/09/06 14:06:57;;;;;;;28.98;16.25;;;;;;;;;;4964889;28;20041;-64
2023/09/06 14:09:24;;;;;;;26.85;15.52;;;;;;;;;;4959382;28;20597;-64
2023/09/06 14:11:51;;;;;;;30.10;16.50;;;;;;;;;;4963645;28;20461;-64
2023/09/06 14:14:18;;;;;;;26.58;15.82;;;;;;;;;;4963893;28;20031;-64
2023/09/06 14:16:44;;;;;;;32.03;16.40;;;;;;;;;;4962304;28;20057;-65
2023/09/06 14:19:11;;;;;;;31.15;16.20;;;;;;;;;;4963188;28;20180;-64
2023/09/06 14:21:45;;;;;;;32.97;16.65;;;;;;;;;;4963405;28;20039;-65
2023/09/06 14:24:12;;;;;;;30.10;16.45;;;;;;;;;;4965443;28;20708;-65
2023/09/06 14:26:38;;;;;;;36.33;16.17;;;;;;;;;;4973489;28;20483;-65
2023/09/06 14:29:05;;;;;;;29.80;16.27;;;;;;;;;;4975927;28;20038;-66
2023/09/06 14:31:32;;;;;;;30.77;16.77;;;;;;;;;;4988337;28;20055;-66
2023/09/06 14:33:58;;;;;;;29.08;16.45;;;;;;;;;;4989271;28;20041;-66
2023/09/06 14:36:25;;;;;;;30.27;16.73;;;;;;;;;;4988740;28;20030;-65
2023/09/06 14:38:54;;;;;;;30.23;16.77;;;;;;;;;;4988355;28;20057;-66
2023/09/06 14:41:22;;;;;;;29.27;16.90;;;;;;;;;;4975344;28;20035;-65
2023/09/06 14:43:49;;;;;;;31.60;17.77;;;;;;;;;;4960853;28;20925;-65
2023/09/06 14:46:16;;;;;;;33.97;17.42;;;;;;;;;;4960340;28;21603;-63
2023/09/06 14:48:42;;;;;;;34.15;17.23;;;;;;;;;;4960891;28;20054;-64
2023/09/06 14:51:09;;;;;;;31.70;18.05;;;;;;;;;;4961343;28;20038;-64
2023/09/06 14:53:35;;;;;;;31.27;17.25;;;;;;;;;;4962485;28;20049;-64
2023/09/06 14:56:02;;;;;;;33.42;17.95;;;;;;;;;;4973509;28;20042;-64
2023/09/06 14:58:29;;;;;;;31.08;17.10;;;;;;;;;;4964470;28;20038;-64
2023/09/06 15:00:56;;;;;;;33.03;16.58;;;;;;;;;;4966077;28;20078;-64
2023/09/06 15:03:23;;;;;;;31.08;17.10;;;;;;;;;;4965639;28;20705;-65
2023/09/06 15:05:50;;;;;;;29.60;17.15;;;;;;;;;;4964925;28;20185;-64
2023/09/06 15:08:17;;;;;;;30.60;17.20;;;;;;;;;;4965649;28;20045;-64
2023/09/06 15:10:44;;;;;;;30.77;17.30;;;;;;;;;;4963958;28;20050;-64
2023/09/06 15:13:14;;;;;;;32.55;17.58;;;;;;;;;;4964671;28;20472;-65
2023/09/06 15:15:42;;;;;;;30.33;17.17;;;;;;;;;;4964022;28;20070;-63
2023/09/06 15:18:09;;;;;;;30.27;17.55;;;;;;;;;;4963231;28;20516;-65
2023/09/06 15:20:36;;;;;;;30.20;17.45;;;;;;;;;;4963191;28;20058;-64
2023/09/06 15:23:03;;;;;;;32.33;17.73;;;;;;;;;;4963816;28;20098;-64
2023/09/06 15:25:30;;;;;;;32.38;18.08;;;;;;;;;;4963448;28;20051;-65
2023/09/06 15:27:57;;;;;;;32.35;18.38;;;;;;;;;;4965050;28;20053;-64
2023/09/06 15:30:23;;;;;;;29.77;16.95;;;;;;;;;;4965748;28;20242;-63
2023/09/06 15:32:50;;;;;;;28.85;16.73;;;;;;;;;;4972331;28;20464;-64
2023/09/06 15:35:17;;;;;;;32.00;17.95;;;;;;;;;;4964401;28;20045;-66
2023/09/06 15:37:59;;;;;;;27.00;16.48;;;;;;;;;;4964447;28;20330;-65
2023/09/06 15:40:26;;;;;;;31.40;17.70;;;;;;;;;;4965449;28;20054;-65
2023/09/06 15:42:52;;;;;;;34.72;18.75;;;;;;;;;;4966201;28;20567;-64
2023/09/06 15:45:19;;;;;;;34.28;18.15;;;;;;;;;;4965194;28;20047;-64
2023/09/06 15:47:47;;;;;;;32.08;16.52;;;;;;;;;;4964522;28;20098;-65
2023/09/06 15:50:15;;;;;;;31.77;18.10;;;;;;;;;;4964079;28;20475;-64
2023/09/06 15:52:43;;;;;;;34.92;18.05;;;;;;;;;;4964791;28;20053;-65
2023/09/06 15:55:09;;;;;;;34.95;19.27;;;;;;;;;;4964967;28;20441;-65
2023/09/06 15:57:37;;;;;;;33.22;19.05;;;;;;;;;;4965078;28;20177;-65
2023/09/06 16:00:08;;;;;;;31.77;17.63;;;;;;;;;;4978203;28;20352;-65
2023/09/06 16:02:38;;;;;;;33.10;18.00;;;;;;;;;;4974115;28;20047;-65
2023/09/06 16:05:08;;;;;;;32.15;17.63;;;;;;;;;;4968050;28;20100;-66
2023/09/06 16:07:38;;;;;;;31.83;18.05;;;;;;;;;;4964990;28;20775;-67
2023/09/06 16:10:06;;;;;;;35.45;18.30;;;;;;;;;;4964501;28;20189;-64